sensor_id;sensor_type;location;lat;lon;timestamp;P1;durP1;ratioP1;P2;durP2;ratioP2
25327;SDS011;13279;51.300;12.394;2023-09-19T00:00:34;3.50;;;1.50;;
25327;SDS011;13279;51.300;12.394;2023-09-19T00:03:02;2.03;;;1.63;;
25327;SDS011;13279;51.300;12.394;2023-09-19T00:05:33;1.87;;;1.77;;
25327;SDS011;13279;51.300;12.394;2023-09-19T00:08:02;7.33;;;1.60;;
25327;SDS011;13279;51.300;12.394;2023-09-19T00:10:30;4.70;;;1.57;;
25327;SDS011;13279;51.300;12.394;2023-09-19T00:13:00;4.70;;;1.67;;
25327;SDS011;13279;51.300;12.394;2023-09-19T00:15:31;2.80;;;1.50;;
25327;SDS011;13279;51.300;12.394;2023-09-19T00:18:03;5.00;;;1.40;;
25327;SDS011;13279;51.300;12.394;2023-09-19T00:20:35;1.70;;;1.60;;
25327;SDS011;13279;51.300;12.394;2023-09-19T00:23:03;9.00;;;1.93;;
25327;SDS011;13279;51.300;12.394;2023-09-19T00:25:35;4.30;;;1.50;;
25327;SDS011;13279;51.300;12.394;2023-09-19T00:28:03;4.90;;;1.70;;
25327;SDS011;13279;51.300;12.394;2023-09-19T00:30:32;1.70;;;1.60;;
25327;SDS011;13279;51.300;12.394;2023-09-19T00:33:00;1.80;;;1.57;;
25327;SDS011;13279;51.300;12.394;2023-09-19T00:35:31;2.57;;;1.80;;
25327;SDS011;13279;51.300;12.394;2023-09-19T00:38:00;3.27;;;1.57;;
25327;SDS011;13279;51.300;12.394;2023-09-19T00:40:29;5.23;;;1.43;;
25327;SDS011;13279;51.300;12.394;2023-09-19T00:42:57;2.87;;;1.80;;
25327;SDS011;13279;51.300;12.394;2023-09-19T00:45:26;1.80;;;1.70;;
25327;SDS011;13279;51.300;12.394;2023-09-19T00:47:55;4.03;;;1.93;;
25327;SDS011;13279;51.300;12.394;2023-09-19T00:50:24;3.97;;;1.73;;
25327;SDS011;13279;51.300;12.394;2023-09-19T00:52:54;2.50;;;1.87;;
25327;SDS011;13279;51.300;12.394;2023-09-19T00:55:24;4.13;;;1.60;;
25327;SDS011;13279;51.300;12.394;2023-09-19T00:57:53;2.00;;;1.80;;
25327;SDS011;13279;51.300;12.394;2023-09-19T01:00:24;5.20;;;2.30;;
25327;SDS011;13279;51.300;12.394;2023-09-19T01:02:52;4.00;;;1.67;;
25327;SDS011;13279;51.300;12.394;2023-09-19T01:05:21;1.77;;;1.67;;
25327;SDS011;13279;51.300;12.394;2023-09-19T01:07:50;6.40;;;1.80;;
25327;SDS011;13279;51.300;12.394;2023-09-19T01:10:18;2.63;;;1.83;;
25327;SDS011;13279;51.300;12.394;2023-09-19T01:12:52;3.27;;;1.87;;
25327;SDS011;13279;51.300;12.394;2023-09-19T01:15:28;3.43;;;1.70;;
25327;SDS011;13279;51.300;12.394;2023-09-19T01:18:09;2.63;;;2.00;;
25327;SDS011;13279;51.300;12.394;2023-09-19T01:20:45;4.23;;;1.70;;
25327;SDS011;13279;51.300;12.394;2023-09-19T01:23:23;2.23;;;2.03;;
25327;SDS011;13279;51.300;12.394;2023-09-19T01:26:23;5.27;;;2.00;;
25327;SDS011;13279;51.300;12.394;2023-09-19T01:29:16;2.57;;;2.27;;
25327;SDS011;13279;51.300;12.394;2023-09-19T01:32:01;3.87;;;2.23;;
25327;SDS011;13279;51.300;12.394;2023-09-19T01:34:43;2.50;;;2.30;;
25327;SDS011;13279;51.300;12.394;2023-09-19T01:37:13;3.27;;;2.00;;
25327;SDS011;13279;51.300;12.394;2023-09-19T01:39:44;2.60;;;2.20;;
25327;SDS011;13279;51.300;12.394;2023-09-19T01:42:16;2.77;;;1.93;;
25327;SDS011;13279;51.300;12.394;2023-09-19T01:44:52;2.57;;;2.30;;
25327;SDS011;13279;51.300;12.394;2023-09-19T01:47:34;3.20;;;2.10;;
25327;SDS011;13279;51.300;12.394;2023-09-19T01:50:09;3.63;;;1.73;;
25327;SDS011;13279;51.300;12.394;2023-09-19T01:52:46;2.13;;;1.57;;
25327;SDS011;13279;51.300;12.394;2023-09-19T01:55:16;2.00;;;1.57;;
25327;SDS011;13279;51.300;12.394;2023-09-19T01:57:48;3.40;;;2.10;;
25327;SDS011;13279;51.300;12.394;2023-09-19T02:00:18;4.03;;;1.77;;
25327;SDS011;13279;51.300;12.394;2023-09-19T02:02:50;2.63;;;1.97;;
25327;SDS011;13279;51.300;12.394;2023-09-19T02:05:24;2.63;;;1.90;;
25327;SDS011;13279;51.300;12.394;2023-09-19T02:07:53;2.60;;;1.80;;
25327;SDS011;13279;51.300;12.394;2023-09-19T02:10:21;6.57;;;2.37;;
25327;SDS011;13279;51.300;12.394;2023-09-19T02:12:49;3.43;;;1.80;;
25327;SDS011;13279;51.300;12.394;2023-09-19T02:15:17;3.53;;;1.90;;
25327;SDS011;13279;51.300;12.394;2023-09-19T02:17:44;3.30;;;2.37;;
25327;SDS011;13279;51.300;12.394;2023-09-19T02:20:14;2.13;;;1.73;;
25327;SDS011;13279;51.300;12.394;2023-09-19T02:22:42;2.87;;;1.67;;
25327;SDS011;13279;51.300;12.394;2023-09-19T02:25:10;2.57;;;1.97;;
25327;SDS011;13279;51.300;12.394;2023-09-19T02:27:39;2.37;;;1.50;;
25327;SDS011;13279;51.300;12.394;2023-09-19T02:30:07;2.93;;;1.60;;
25327;SDS011;13279;51.300;12.394;2023-09-19T02:32:34;3.07;;;2.03;;
25327;SDS011;13279;51.300;12.394;2023-09-19T02:35:05;1.90;;;1.70;;
25327;SDS011;13279;51.300;12.394;2023-09-19T02:37:38;2.03;;;1.70;;
25327;SDS011;13279;51.300;12.394;2023-09-19T02:40:06;4.17;;;2.90;;
25327;SDS011;13279;51.300;12.394;2023-09-19T02:42:44;1.77;;;1.50;;
25327;SDS011;13279;51.300;12.394;2023-09-19T02:45:15;2.70;;;1.70;;
25327;SDS011;13279;51.300;12.394;2023-09-19T02:47:44;1.80;;;1.53;;
25327;SDS011;13279;51.300;12.394;2023-09-19T02:50:12;1.67;;;1.57;;
25327;SDS011;13279;51.300;12.394;2023-09-19T02:52:43;3.67;;;1.20;;
25327;SDS011;13279;51.300;12.394;2023-09-19T02:55:12;3.00;;;1.30;;
25327;SDS011;13279;51.300;12.394;2023-09-19T02:57:45;5.47;;;1.63;;
25327;SDS011;13279;51.300;12.394;2023-09-19T03:00:14;4.07;;;1.60;;
25327;SDS011;13279;51.300;12.394;2023-09-19T03:02:42;3.00;;;1.70;;
25327;SDS011;13279;51.300;12.394;2023-09-19T03:05:10;3.13;;;1.27;;
25327;SDS011;13279;51.300;12.394;2023-09-19T03:07:38;1.30;;;1.20;;
25327;SDS011;13279;51.300;12.394;2023-09-19T03:10:08;3.10;;;1.77;;
25327;SDS011;13279;51.300;12.394;2023-09-19T03:12:36;6.43;;;1.30;;
25327;SDS011;13279;51.300;12.394;2023-09-19T03:15:06;2.67;;;1.27;;
25327;SDS011;13279;51.300;12.394;2023-09-19T03:17:35;2.10;;;1.23;;
25327;SDS011;13279;51.300;12.394;2023-09-19T03:20:03;1.80;;;1.27;;
25327;SDS011;13279;51.300;12.394;2023-09-19T03:22:34;4.27;;;1.23;;
25327;SDS011;13279;51.300;12.394;2023-09-19T03:25:02;1.30;;;1.20;;
25327;SDS011;13279;51.300;12.394;2023-09-19T03:27:37;2.17;;;1.40;;
25327;SDS011;13279;51.300;12.394;2023-09-19T03:30:06;2.80;;;1.30;;
25327;SDS011;13279;51.300;12.394;2023-09-19T03:32:35;4.37;;;1.30;;
25327;SDS011;13279;51.300;12.394;2023-09-19T03:35:02;9.67;;;1.80;;
25327;SDS011;13279;51.300;12.394;2023-09-19T03:37:31;5.07;;;1.60;;
25327;SDS011;13279;51.300;12.394;2023-09-19T03:40:00;1.73;;;1.30;;
25327;SDS011;13279;51.300;12.394;2023-09-19T03:42:31;1.77;;;1.57;;
25327;SDS011;13279;51.300;12.394;2023-09-19T03:45:03;3.40;;;1.53;;
25327;SDS011;13279;51.300;12.394;2023-09-19T03:47:32;2.53;;;1.57;;
25327;SDS011;13279;51.300;12.394;2023-09-19T03:50:02;5.07;;;1.50;;
25327;SDS011;13279;51.300;12.394;2023-09-19T03:52:30;3.17;;;1.50;;
25327;SDS011;13279;51.300;12.394;2023-09-19T03:54:57;2.17;;;1.10;;
25327;SDS011;13279;51.300;12.394;2023-09-19T03:57:25;1.53;;;1.40;;
25327;SDS011;13279;51.300;12.394;2023-09-19T03:59:53;2.80;;;1.50;;
25327;SDS011;13279;51.300;12.394;2023-09-19T04:02:23;5.03;;;1.43;;
25327;SDS011;13279;51.300;12.394;2023-09-19T04:04:51;1.60;;;1.50;;
25327;SDS011;13279;51.300;12.394;2023-09-19T04:07:18;1.43;;;1.33;;
25327;SDS011;13279;51.300;12.394;2023-09-19T04:09:48;3.27;;;1.20;;
25327;SDS011;13279;51.300;12.394;2023-09-19T04:12:16;2.97;;;1.67;;
25327;SDS011;13279;51.300;12.394;2023-09-19T04:14:44;1.33;;;1.23;;
25327;SDS011;13279;51.300;12.394;2023-09-19T04:17:12;4.17;;;1.80;;
25327;SDS011;13279;51.300;12.394;2023-09-19T04:19:42;2.07;;;1.57;;
25327;SDS011;13279;51.300;12.394;2023-09-19T04:22:11;2.13;;;1.63;;
25327;SDS011;13279;51.300;12.394;2023-09-19T04:24:40;3.53;;;1.40;;
25327;SDS011;13279;51.300;12.394;2023-09-19T04:27:08;2.93;;;1.30;;
25327;SDS011;13279;51.300;12.394;2023-09-19T04:29:38;3.47;;;0.97;;
25327;SDS011;13279;51.300;12.394;2023-09-19T04:32:07;1.23;;;0.93;;
25327;SDS011;13279;51.300;12.394;2023-09-19T04:34:35;1.60;;;1.43;;
25327;SDS011;13279;51.300;12.394;2023-09-19T04:37:05;6.03;;;1.73;;
25327;SDS011;13279;51.300;12.394;2023-09-19T04:39:32;1.40;;;1.30;;
25327;SDS011;13279;51.300;12.394;2023-09-19T04:42:00;1.40;;;1.30;;
25327;SDS011;13279;51.300;12.394;2023-09-19T04:44:30;2.90;;;1.40;;
25327;SDS011;13279;51.300;12.394;2023-09-19T04:46:57;2.60;;;1.33;;
25327;SDS011;13279;51.300;12.394;2023-09-19T04:49:25;2.57;;;1.60;;
25327;SDS011;13279;51.300;12.394;2023-09-19T04:51:53;1.80;;;1.40;;
25327;SDS011;13279;51.300;12.394;2023-09-19T04:54:22;2.50;;;1.33;;
25327;SDS011;13279;51.300;12.394;2023-09-19T04:56:50;1.43;;;1.33;;
25327;SDS011;13279;51.300;12.394;2023-09-19T04:59:17;3.20;;;1.30;;
25327;SDS011;13279;51.300;12.394;2023-09-19T05:01:45;4.27;;;1.50;;
25327;SDS011;13279;51.300;12.394;2023-09-19T05:04:12;2.30;;;1.37;;
25327;SDS011;13279;51.300;12.394;2023-09-19T05:06:40;1.90;;;1.43;;
25327;SDS011;13279;51.300;12.394;2023-09-19T05:09:08;5.43;;;1.57;;
25327;SDS011;13279;51.300;12.394;2023-09-19T05:11:37;1.90;;;1.67;;
25327;SDS011;13279;51.300;12.394;2023-09-19T05:14:05;1.67;;;1.40;;
25327;SDS011;13279;51.300;12.394;2023-09-19T05:16:32;2.07;;;1.60;;
25327;SDS011;13279;51.300;12.394;2023-09-19T05:19:01;4.87;;;1.37;;
25327;SDS011;13279;51.300;12.394;2023-09-19T05:21:28;3.50;;;1.40;;
25327;SDS011;13279;51.300;12.394;2023-09-19T05:23:59;5.27;;;1.53;;
25327;SDS011;13279;51.300;12.394;2023-09-19T05:26:26;1.43;;;1.20;;
25327;SDS011;13279;51.300;12.394;2023-09-19T05:28:55;1.40;;;1.30;;
25327;SDS011;13279;51.300;12.394;2023-09-19T05:31:23;2.20;;;1.17;;
25327;SDS011;13279;51.300;12.394;2023-09-19T05:33:51;1.60;;;1.37;;
25327;SDS011;13279;51.300;12.394;2023-09-19T05:36:20;1.23;;;1.13;;
25327;SDS011;13279;51.300;12.394;2023-09-19T05:38:48;1.20;;;1.20;;
25327;SDS011;13279;51.300;12.394;2023-09-19T05:41:16;2.10;;;1.50;;
25327;SDS011;13279;51.300;12.394;2023-09-19T05:43:44;1.60;;;1.50;;
25327;SDS011;13279;51.300;12.394;2023-09-19T05:46:12;3.80;;;1.63;;
25327;SDS011;13279;51.300;12.394;2023-09-19T05:48:41;1.37;;;1.20;;
25327;SDS011;13279;51.300;12.394;2023-09-19T05:51:10;2.50;;;1.70;;
25327;SDS011;13279;51.300;12.394;2023-09-19T05:53:37;3.83;;;1.70;;
25327;SDS011;13279;51.300;12.394;2023-09-19T05:56:05;1.90;;;1.00;;
25327;SDS011;13279;51.300;12.394;2023-09-19T05:58:33;3.63;;;1.43;;
25327;SDS011;13279;51.300;12.394;2023-09-19T06:01:00;3.70;;;1.30;;
25327;SDS011;13279;51.300;12.394;2023-09-19T06:03:30;3.47;;;1.27;;
25327;SDS011;13279;51.300;12.394;2023-09-19T06:05:58;2.37;;;1.30;;
25327;SDS011;13279;51.300;12.394;2023-09-19T06:08:25;3.00;;;1.20;;
25327;SDS011;13279;51.300;12.394;2023-09-19T06:10:53;1.43;;;1.20;;
25327;SDS011;13279;51.300;12.394;2023-09-19T06:13:21;1.30;;;1.20;;
25327;SDS011;13279;51.300;12.394;2023-09-19T06:15:49;3.60;;;1.20;;
25327;SDS011;13279;51.300;12.394;2023-09-19T06:18:17;3.30;;;1.10;;
25327;SDS011;13279;51.300;12.394;2023-09-19T06:20:47;1.20;;;1.10;;
25327;SDS011;13279;51.300;12.394;2023-09-19T06:23:16;2.77;;;1.50;;
25327;SDS011;13279;51.300;12.394;2023-09-19T06:25:45;2.90;;;1.50;;
25327;SDS011;13279;51.300;12.394;2023-09-19T06:28:12;4.07;;;1.47;;
25327;SDS011;13279;51.300;12.394;2023-09-19T06:30:43;3.97;;;1.20;;
25327;SDS011;13279;51.300;12.394;2023-09-19T06:33:11;2.03;;;1.20;;
25327;SDS011;13279;51.300;12.394;2023-09-19T06:35:39;2.23;;;1.20;;
25327;SDS011;13279;51.300;12.394;2023-09-19T06:38:08;5.57;;;1.57;;
25327;SDS011;13279;51.300;12.394;2023-09-19T06:40:38;1.97;;;1.30;;
25327;SDS011;13279;51.300;12.394;2023-09-19T06:43:09;1.87;;;1.10;;
25327;SDS011;13279;51.300;12.394;2023-09-19T06:45:37;5.13;;;1.47;;
25327;SDS011;13279;51.300;12.394;2023-09-19T06:48:05;1.73;;;1.40;;
25327;SDS011;13279;51.300;12.394;2023-09-19T06:50:33;1.10;;;1.10;;
25327;SDS011;13279;51.300;12.394;2023-09-19T06:53:01;2.87;;;1.30;;
25327;SDS011;13279;51.300;12.394;2023-09-19T06:55:30;4.53;;;1.87;;
25327;SDS011;13279;51.300;12.394;2023-09-19T06:57:58;1.67;;;1.17;;
25327;SDS011;13279;51.300;12.394;2023-09-19T07:00:25;1.93;;;1.20;;
25327;SDS011;13279;51.300;12.394;2023-09-19T07:02:56;5.40;;;1.30;;
25327;SDS011;13279;51.300;12.394;2023-09-19T07:05:26;3.57;;;1.17;;
25327;SDS011;13279;51.300;12.394;2023-09-19T07:07:54;1.60;;;1.20;;
25327;SDS011;13279;51.300;12.394;2023-09-19T07:10:24;3.57;;;1.23;;
25327;SDS011;13279;51.300;12.394;2023-09-19T07:12:57;3.33;;;1.87;;
25327;SDS011;13279;51.300;12.394;2023-09-19T07:15:25;4.10;;;1.50;;
25327;SDS011;13279;51.300;12.394;2023-09-19T07:17:53;3.70;;;1.40;;
25327;SDS011;13279;51.300;12.394;2023-09-19T07:20:22;7.70;;;1.93;;
25327;SDS011;13279;51.300;12.394;2023-09-19T07:22:51;2.57;;;1.87;;
25327;SDS011;13279;51.300;12.394;2023-09-19T07:25:20;3.97;;;1.27;;
25327;SDS011;13279;51.300;12.394;2023-09-19T07:27:47;1.33;;;1.10;;
25327;SDS011;13279;51.300;12.394;2023-09-19T07:30:17;4.50;;;1.20;;
25327;SDS011;13279;51.300;12.394;2023-09-19T07:32:45;13.83;;;2.73;;
25327;SDS011;13279;51.300;12.394;2023-09-19T07:35:12;4.40;;;0.73;;
25327;SDS011;13279;51.300;12.394;2023-09-19T07:37:40;2.23;;;1.10;;
25327;SDS011;13279;51.300;12.394;2023-09-19T07:40:08;3.37;;;1.27;;
25327;SDS011;13279;51.300;12.394;2023-09-19T07:42:36;8.30;;;1.53;;
25327;SDS011;13279;51.300;12.394;2023-09-19T07:45:09;3.50;;;1.23;;
25327;SDS011;13279;51.300;12.394;2023-09-19T07:47:43;2.53;;;1.17;;
25327;SDS011;13279;51.300;12.394;2023-09-19T07:50:12;5.27;;;1.53;;
25327;SDS011;13279;51.300;12.394;2023-09-19T07:52:41;2.47;;;1.07;;
25327;SDS011;13279;51.300;12.394;2023-09-19T07:55:09;5.27;;;1.40;;
25327;SDS011;13279;51.300;12.394;2023-09-19T07:57:41;5.67;;;1.50;;
25327;SDS011;13279;51.300;12.394;2023-09-19T08:00:09;5.80;;;1.40;;
25327;SDS011;13279;51.300;12.394;2023-09-19T08:02:38;3.10;;;1.60;;
25327;SDS011;13279;51.300;12.394;2023-09-19T08:05:09;3.60;;;1.10;;
25327;SDS011;13279;51.300;12.394;2023-09-19T08:07:37;2.60;;;1.23;;
25327;SDS011;13279;51.300;12.394;2023-09-19T08:10:06;1.77;;;1.23;;
25327;SDS011;13279;51.300;12.394;2023-09-19T08:12:39;3.07;;;1.37;;
25327;SDS011;13279;51.300;12.394;2023-09-19T08:15:11;6.00;;;1.50;;
25327;SDS011;13279;51.300;12.394;2023-09-19T08:17:40;1.97;;;1.00;;
25327;SDS011;13279;51.300;12.394;2023-09-19T08:20:09;7.10;;;1.40;;
25327;SDS011;13279;51.300;12.394;2023-09-19T08:22:42;3.40;;;1.30;;
25327;SDS011;13279;51.300;12.394;2023-09-19T08:25:13;9.70;;;1.17;;
25327;SDS011;13279;51.300;12.394;2023-09-19T08:27:42;3.03;;;1.27;;
25327;SDS011;13279;51.300;12.394;2023-09-19T08:30:14;5.13;;;1.67;;
25327;SDS011;13279;51.300;12.394;2023-09-19T08:32:42;3.33;;;1.00;;
25327;SDS011;13279;51.300;12.394;2023-09-19T08:35:11;5.13;;;1.17;;
25327;SDS011;13279;51.300;12.394;2023-09-19T08:37:39;4.03;;;1.47;;
25327;SDS011;13279;51.300;12.394;2023-09-19T08:40:07;1.30;;;1.20;;
25327;SDS011;13279;51.300;12.394;2023-09-19T08:42:48;2.13;;;1.10;;
25327;SDS011;13279;51.300;12.394;2023-09-19T08:45:16;4.70;;;1.33;;
25327;SDS011;13279;51.300;12.394;2023-09-19T08:47:45;4.73;;;1.40;;
25327;SDS011;13279;51.300;12.394;2023-09-19T08:50:18;4.20;;;1.10;;
25327;SDS011;13279;51.300;12.394;2023-09-19T08:52:51;4.63;;;1.33;;
25327;SDS011;13279;51.300;12.394;2023-09-19T08:55:22;4.93;;;1.50;;
25327;SDS011;13279;51.300;12.394;2023-09-19T08:57:56;3.77;;;1.10;;
25327;SDS011;13279;51.300;12.394;2023-09-19T09:00:27;2.03;;;0.87;;
25327;SDS011;13279;51.300;12.394;2023-09-19T09:02:55;2.37;;;1.30;;
25327;SDS011;13279;51.300;12.394;2023-09-19T09:05:25;4.43;;;1.30;;
25327;SDS011;13279;51.300;12.394;2023-09-19T09:07:55;1.97;;;1.33;;
25327;SDS011;13279;51.300;12.394;2023-09-19T09:10:25;4.43;;;1.23;;
25327;SDS011;13279;51.300;12.394;2023-09-19T09:12:53;7.77;;;1.63;;
25327;SDS011;13279;51.300;12.394;2023-09-19T09:15:21;3.80;;;2.07;;
25327;SDS011;13279;51.300;12.394;2023-09-19T09:17:50;5.37;;;1.43;;
25327;SDS011;13279;51.300;12.394;2023-09-19T09:20:19;5.13;;;1.13;;
25327;SDS011;13279;51.300;12.394;2023-09-19T09:22:52;3.70;;;1.43;;
25327;SDS011;13279;51.300;12.394;2023-09-19T09:25:21;1.93;;;1.00;;
25327;SDS011;13279;51.300;12.394;2023-09-19T09:27:59;6.63;;;1.37;;
25327;SDS011;13279;51.300;12.394;2023-09-19T09:30:34;1.73;;;1.10;;
25327;SDS011;13279;51.300;12.394;2023-09-19T09:33:09;7.07;;;1.27;;
25327;SDS011;13279;51.300;12.394;2023-09-19T09:35:38;2.17;;;1.10;;
25327;SDS011;13279;51.300;12.394;2023-09-19T09:38:19;3.03;;;0.93;;
25327;SDS011;13279;51.300;12.394;2023-09-19T09:40:51;6.37;;;1.53;;
25327;SDS011;13279;51.300;12.394;2023-09-19T09:43:30;5.50;;;1.50;;
25327;SDS011;13279;51.300;12.394;2023-09-19T09:46:10;3.40;;;1.20;;
25327;SDS011;13279;51.300;12.394;2023-09-19T09:48:55;10.13;;;1.80;;
25327;SDS011;13279;51.300;12.394;2023-09-19T09:51:51;5.73;;;1.30;;
25327;SDS011;13279;51.300;12.394;2023-09-19T09:54:31;4.83;;;1.10;;
25327;SDS011;13279;51.300;12.394;2023-09-19T09:57:04;3.03;;;1.27;;
25327;SDS011;13279;51.300;12.394;2023-09-19T09:59:49;1.43;;;1.10;;
25327;SDS011;13279;51.300;12.394;2023-09-19T10:02:19;5.47;;;1.40;;
25327;SDS011;13279;51.300;12.394;2023-09-19T10:04:51;1.30;;;1.10;;
25327;SDS011;13279;51.300;12.394;2023-09-19T10:07:29;1.60;;;1.50;;
25327;SDS011;13279;51.300;12.394;2023-09-19T10:10:04;2.80;;;1.37;;
25327;SDS011;13279;51.300;12.394;2023-09-19T10:12:45;3.00;;;1.23;;
25327;SDS011;13279;51.300;12.394;2023-09-19T10:15:14;1.63;;;1.53;;
25327;SDS011;13279;51.300;12.394;2023-09-19T10:17:45;7.47;;;1.30;;
25327;SDS011;13279;51.300;12.394;2023-09-19T10:20:13;5.87;;;1.20;;
25327;SDS011;13279;51.300;12.394;2023-09-19T10:23:04;2.47;;;1.33;;
25327;SDS011;13279;51.300;12.394;2023-09-19T10:25:38;4.20;;;1.10;;
25327;SDS011;13279;51.300;12.394;2023-09-19T10:28:07;3.00;;;1.10;;
25327;SDS011;13279;51.300;12.394;2023-09-19T10:30:37;1.53;;;1.20;;
25327;SDS011;13279;51.300;12.394;2023-09-19T10:33:10;2.00;;;1.30;;
25327;SDS011;13279;51.300;12.394;2023-09-19T10:35:38;3.17;;;0.97;;
25327;SDS011;13279;51.300;12.394;2023-09-19T10:38:09;5.70;;;1.20;;
25327;SDS011;13279;51.300;12.394;2023-09-19T10:40:38;5.47;;;1.20;;
25327;SDS011;13279;51.300;12.394;2023-09-19T10:43:11;5.67;;;1.27;;
25327;SDS011;13279;51.300;12.394;2023-09-19T10:45:40;6.70;;;1.60;;
25327;SDS011;13279;51.300;12.394;2023-09-19T10:48:09;8.93;;;1.60;;
25327;SDS011;13279;51.300;12.394;2023-09-19T10:50:41;2.37;;;1.23;;
25327;SDS011;13279;51.300;12.394;2023-09-19T10:53:13;6.67;;;1.67;;
25327;SDS011;13279;51.300;12.394;2023-09-19T10:55:41;7.53;;;1.43;;
25327;SDS011;13279;51.300;12.394;2023-09-19T10:58:23;3.80;;;1.20;;
25327;SDS011;13279;51.300;12.394;2023-09-19T11:00:54;2.37;;;1.30;;
25327;SDS011;13279;51.300;12.394;2023-09-19T11:03:27;6.77;;;1.60;;
25327;SDS011;13279;51.300;12.394;2023-09-19T11:06:03;6.93;;;1.30;;
25327;SDS011;13279;51.300;12.394;2023-09-19T11:08:53;6.57;;;1.30;;
25327;SDS011;13279;51.300;12.394;2023-09-19T11:11:38;8.27;;;1.33;;
25327;SDS011;13279;51.300;12.394;2023-09-19T11:20:23;5.30;;;1.50;;
25327;SDS011;13279;51.300;12.394;2023-09-19T11:23:21;2.67;;;1.17;;
25327;SDS011;13279;51.300;12.394;2023-09-19T11:25:54;4.27;;;1.47;;
25327;SDS011;13279;51.300;12.394;2023-09-19T11:28:31;5.67;;;1.30;;
25327;SDS011;13279;51.300;12.394;2023-09-19T11:34:38;11.57;;;1.90;;
25327;SDS011;13279;51.300;12.394;2023-09-19T11:40:33;3.03;;;1.20;;
25327;SDS011;13279;51.300;12.394;2023-09-19T11:43:08;4.10;;;1.53;;
25327;SDS011;13279;51.300;12.394;2023-09-19T11:46:06;6.70;;;1.43;;
25327;SDS011;13279;51.300;12.394;2023-09-19T11:48:40;2.43;;;1.40;;
25327;SDS011;13279;51.300;12.394;2023-09-19T11:51:19;9.63;;;2.30;;
25327;SDS011;13279;51.300;12.394;2023-09-19T11:53:49;1.70;;;1.00;;
25327;SDS011;13279;51.300;12.394;2023-09-19T11:56:18;5.00;;;1.70;;
25327;SDS011;13279;51.300;12.394;2023-09-19T11:58:50;3.67;;;1.73;;
25327;SDS011;13279;51.300;12.394;2023-09-19T12:01:24;2.97;;;1.50;;
25327;SDS011;13279;51.300;12.394;2023-09-19T12:03:58;1.87;;;1.37;;
25327;SDS011;13279;51.300;12.394;2023-09-19T12:06:27;6.27;;;2.17;;
25327;SDS011;13279;51.300;12.394;2023-09-19T12:08:57;3.67;;;1.40;;
25327;SDS011;13279;51.300;12.394;2023-09-19T12:11:31;4.00;;;1.37;;
25327;SDS011;13279;51.300;12.394;2023-09-19T12:14:00;6.97;;;1.53;;
25327;SDS011;13279;51.300;12.394;2023-09-19T12:16:29;4.70;;;1.60;;
25327;SDS011;13279;51.300;12.394;2023-09-19T12:18:58;4.97;;;1.60;;
25327;SDS011;13279;51.300;12.394;2023-09-19T12:21:50;6.90;;;1.60;;
25327;SDS011;13279;51.300;12.394;2023-09-19T12:24:22;4.33;;;1.60;;
25327;SDS011;13279;51.300;12.394;2023-09-19T12:26:51;6.13;;;1.70;;
25327;SDS011;13279;51.300;12.394;2023-09-19T12:29:23;5.00;;;1.53;;
25327;SDS011;13279;51.300;12.394;2023-09-19T12:31:51;3.93;;;1.40;;
25327;SDS011;13279;51.300;12.394;2023-09-19T12:34:21;7.10;;;1.57;;
25327;SDS011;13279;51.300;12.394;2023-09-19T12:37:05;8.43;;;1.87;;
25327;SDS011;13279;51.300;12.394;2023-09-19T12:39:46;4.77;;;1.50;;
25327;SDS011;13279;51.300;12.394;2023-09-19T12:42:17;4.90;;;1.70;;
25327;SDS011;13279;51.300;12.394;2023-09-19T12:44:55;4.50;;;1.40;;
25327;SDS011;13279;51.300;12.394;2023-09-19T12:47:27;3.63;;;1.60;;
25327;SDS011;13279;51.300;12.394;2023-09-19T12:50:09;1.87;;;1.67;;
25327;SDS011;13279;51.300;12.394;2023-09-19T12:52:44;2.57;;;1.60;;
25327;SDS011;13279;51.300;12.394;2023-09-19T12:55:23;4.20;;;2.03;;
25327;SDS011;13279;51.300;12.394;2023-09-19T12:57:58;2.40;;;1.80;;
25327;SDS011;13279;51.300;12.394;2023-09-19T13:00:35;3.17;;;1.57;;
25327;SDS011;13279;51.300;12.394;2023-09-19T13:03:14;5.30;;;1.70;;
25327;SDS011;13279;51.300;12.394;2023-09-19T13:05:50;4.17;;;1.83;;
25327;SDS011;13279;51.300;12.394;2023-09-19T13:08:20;2.40;;;1.70;;
25327;SDS011;13279;51.300;12.394;2023-09-19T13:11:02;5.40;;;1.90;;
25327;SDS011;13279;51.300;12.394;2023-09-19T13:13:39;1.93;;;1.70;;
25327;SDS011;13279;51.300;12.394;2023-09-19T13:16:11;5.77;;;1.77;;
25327;SDS011;13279;51.300;12.394;2023-09-19T13:18:45;4.77;;;1.83;;
25327;SDS011;13279;51.300;12.394;2023-09-19T13:21:17;3.53;;;1.70;;
25327;SDS011;13279;51.300;12.394;2023-09-19T13:23:54;16.57;;;2.33;;
25327;SDS011;13279;51.300;12.394;2023-09-19T13:26:25;4.20;;;2.00;;
25327;SDS011;13279;51.300;12.394;2023-09-19T13:28:53;3.10;;;1.67;;
25327;SDS011;13279;51.300;12.394;2023-09-19T13:31:22;1.80;;;1.70;;
25327;SDS011;13279;51.300;12.394;2023-09-19T13:33:51;4.53;;;2.07;;
25327;SDS011;13279;51.300;12.394;2023-09-19T13:36:18;3.03;;;1.67;;
25327;SDS011;13279;51.300;12.394;2023-09-19T13:38:46;3.73;;;1.60;;
25327;SDS011;13279;51.300;12.394;2023-09-19T13:41:14;5.10;;;1.90;;
25327;SDS011;13279;51.300;12.394;2023-09-19T13:43:42;7.67;;;1.80;;
25327;SDS011;13279;51.300;12.394;2023-09-19T13:46:09;5.37;;;2.50;;
25327;SDS011;13279;51.300;12.394;2023-09-19T13:48:43;5.60;;;2.00;;
25327;SDS011;13279;51.300;12.394;2023-09-19T13:51:10;4.33;;;2.00;;
25327;SDS011;13279;51.300;12.394;2023-09-19T13:53:37;4.20;;;1.77;;
25327;SDS011;13279;51.300;12.394;2023-09-19T13:56:04;3.87;;;1.93;;
25327;SDS011;13279;51.300;12.394;2023-09-19T13:58:32;3.60;;;2.10;;
25327;SDS011;13279;51.300;12.394;2023-09-19T14:01:00;5.80;;;2.33;;
25327;SDS011;13279;51.300;12.394;2023-09-19T14:03:28;12.23;;;3.27;;
25327;SDS011;13279;51.300;12.394;2023-09-19T14:05:58;3.00;;;2.20;;
25327;SDS011;13279;51.300;12.394;2023-09-19T14:08:25;5.07;;;2.17;;
25327;SDS011;13279;51.300;12.394;2023-09-19T14:10:52;6.17;;;2.10;;
25327;SDS011;13279;51.300;12.394;2023-09-19T14:13:20;4.30;;;2.20;;
25327;SDS011;13279;51.300;12.394;2023-09-19T14:15:47;4.83;;;2.43;;
25327;SDS011;13279;51.300;12.394;2023-09-19T14:18:15;4.20;;;2.10;;
25327;SDS011;13279;51.300;12.394;2023-09-19T14:20:43;5.90;;;2.73;;
25327;SDS011;13279;51.300;12.394;2023-09-19T14:23:12;3.37;;;2.20;;
25327;SDS011;13279;51.300;12.394;2023-09-19T14:25:39;5.43;;;2.67;;
25327;SDS011;13279;51.300;12.394;2023-09-19T14:28:07;4.33;;;2.33;;
25327;SDS011;13279;51.300;12.394;2023-09-19T14:30:35;3.67;;;1.93;;
25327;SDS011;13279;51.300;12.394;2023-09-19T14:33:03;5.70;;;2.23;;
25327;SDS011;13279;51.300;12.394;2023-09-19T14:35:31;4.90;;;2.70;;
25327;SDS011;13279;51.300;12.394;2023-09-19T14:38:00;4.33;;;2.37;;
25327;SDS011;13279;51.300;12.394;2023-09-19T14:40:28;7.47;;;2.10;;
25327;SDS011;13279;51.300;12.394;2023-09-19T14:42:56;6.40;;;2.30;;
25327;SDS011;13279;51.300;12.394;2023-09-19T14:45:23;5.17;;;2.30;;
25327;SDS011;13279;51.300;12.394;2023-09-19T14:47:52;6.10;;;2.43;;
25327;SDS011;13279;51.300;12.394;2023-09-19T14:50:20;6.70;;;2.50;;
25327;SDS011;13279;51.300;12.394;2023-09-19T14:52:48;3.10;;;2.50;;
25327;SDS011;13279;51.300;12.394;2023-09-19T14:55:17;2.77;;;2.20;;
25327;SDS011;13279;51.300;12.394;2023-09-19T14:57:50;2.50;;;2.17;;
25327;SDS011;13279;51.300;12.394;2023-09-19T15:00:18;6.53;;;3.13;;
25327;SDS011;13279;51.300;12.394;2023-09-19T15:02:49;10.30;;;2.37;;
25327;SDS011;13279;51.300;12.394;2023-09-19T15:05:17;2.60;;;2.23;;
25327;SDS011;13279;51.300;12.394;2023-09-19T15:07:45;12.87;;;2.40;;